Terminal Aerodrome Forecast
Issued by NWS

Home | Current Version | Previous Version | Text Only | Print | Product List | Glossary On
Versions: 1 2 3 4 5 6 7 8 9 10 11 12 13 14
000
FTUS42 KTBW 251142
TAFPGD
TAF
KPGD 251142Z 2512/2612 13005KT P6SM FEW250
     FM251400 17009KT P6SM SCT030 SCT250
     FM251700 23013G22KT P6SM SCT040 SCT250
     FM252300 26009KT P6SM FEW050 SCT250
     FM260600 23006KT P6SM SCT015 SCT250=

USA.gov is the U.S. government's official web portal to all federal, state and local government web resources and services.